Time,TemperatureF,DewpointF,PressureIn,WindDirection,WindDirectionDegrees,WindSpeedMPH,WindSpeedGustMPH,Humidity,HourlyPrecipIn,Conditions,Clouds,dailyrainin,SoftwareType,DateUTC
2013-03-03 00:00:00,34.5,27.5,30.27,NE,51,0.0,0.0,75,0.00,,,0.00,meteohub,2013-03-03 05:00:00,
2013-03-03 00:01:00,34.5,27.5,30.27,NE,51,0.0,0.0,75,0.00,,,0.00,meteohub,2013-03-03 05:01:00,
2013-03-03 00:02:00,34.5,27.5,30.27,NE,51,0.0,0.0,75,0.00,,,0.00,meteohub,2013-03-03 05:02:00,
2013-03-03 00:07:00,34.3,27.3,30.27,NE,51,0.0,0.0,75,0.00,,,0.00,meteohub,2013-03-03 05:07:00,
2013-03-03 00:12:00,34.2,27.3,30.27,NE,51,0.0,0.0,76,0.00,,,0.00,meteohub,2013-03-03 05:12:00,
2013-03-03 00:17:00,34.2,27.3,30.27,NE,51,0.0,0.0,76,0.00,,,0.00,meteohub,2013-03-03 05:17:00,
2013-03-03 00:22:00,34.2,27.3,30.27,NE,51,0.0,0.0,76,0.00,,,0.00,meteohub,2013-03-03 05:22:00,
2013-03-03 00:27:00,34.0,27.1,30.27,NE,51,0.0,0.0,76,0.00,,,0.00,meteohub,2013-03-03 05:27:00,
2013-03-03 00:32:00,34.0,27.5,30.27,NE,51,0.0,0.0,77,0.00,,,0.00,meteohub,2013-03-03 05:32:00,
2013-03-03 00:37:00,34.0,27.9,30.27,NE,51,0.0,0.0,78,0.00,,,0.00,meteohub,2013-03-03 05:37:00,
2013-03-03 00:42:00,34.0,27.5,30.27,NE,51,0.0,0.0,77,0.00,,,0.00,meteohub,2013-03-03 05:42:00,
2013-03-03 00:47:00,34.0,27.9,30.27,NE,51,0.0,0.0,78,0.00,,,0.00,meteohub,2013-03-03 05:47:00,
2013-03-03 00:52:00,34.0,27.9,30.27,NE,51,0.0,0.0,78,0.00,,,0.00,meteohub,2013-03-03 05:52:00,
2013-03-03 00:58:00,34.0,27.9,30.27,NE,51,0.0,0.0,78,0.00,,,0.00,meteohub,2013-03-03 05:58:00,
2013-03-03 01:03:00,34.0,27.9,30.27,NE,51,0.0,0.0,78,0.00,,,0.00,meteohub,2013-03-03 06:03:00,
2013-03-03 01:08:00,33.8,27.7,30.27,NE,51,0.0,0.0,78,0.00,,,0.00,meteohub,2013-03-03 06:08:00,
2013-03-03 01:13:00,33.6,27.5,30.27,NE,51,0.0,0.0,78,0.00,,,0.00,meteohub,2013-03-03 06:13:00,
2013-03-03 01:18:00,33.6,27.9,30.26,NE,51,0.0,0.0,79,0.00,,,0.00,meteohub,2013-03-03 06:18:00,
2013-03-03 01:23:00,33.4,27.7,30.27,NE,51,0.0,0.0,79,0.00,,,0.00,meteohub,2013-03-03 06:23:00,
2013-03-03 01:28:00,33.3,27.5,30.27,NE,51,0.0,0.0,79,0.00,,,0.00,meteohub,2013-03-03 06:28:00,
2013-03-03 01:33:00,33.3,27.7,30.27,NE,51,0.0,0.0,80,0.00,,,0.00,meteohub,2013-03-03 06:33:00,
2013-03-03 01:38:00,33.1,27.5,30.27,NE,51,0.0,0.0,80,0.00,,,0.00,meteohub,2013-03-03 06:38:00,
2013-03-03 01:43:00,33.1,27.5,30.27,NE,51,0.0,0.0,80,0.00,,,0.00,meteohub,2013-03-03 06:43:00,
2013-03-03 01:48:00,33.1,27.5,30.27,NE,51,0.0,0.0,80,0.00,,,0.00,meteohub,2013-03-03 06:48:00,
2013-03-03 01:53:00,33.1,27.5,30.27,NE,51,0.0,0.0,80,0.00,,,0.00,meteohub,2013-03-03 06:53:00,
2013-03-03 01:58:00,33.1,27.5,30.27,NE,51,0.0,0.0,80,0.00,,,0.00,meteohub,2013-03-03 06:58:00,
2013-03-03 02:03:00,33.1,27.9,30.27,NE,51,0.0,0.0,81,0.00,,,0.00,meteohub,2013-03-03 07:03:00,
2013-03-03 02:08:00,33.1,27.9,30.26,NE,51,0.0,0.0,81,0.00,,,0.00,meteohub,2013-03-03 07:08:00,
2013-03-03 02:13:00,33.1,27.9,30.26,NE,51,0.0,0.0,81,0.00,,,0.00,meteohub,2013-03-03 07:13:00,
2013-03-03 02:18:00,32.9,27.7,30.26,NE,51,0.0,0.0,81,0.00,,,0.00,meteohub,2013-03-03 07:18:00,
2013-03-03 02:23:00,32.7,27.5,30.26,NE,51,0.0,0.0,81,0.00,,,0.00,meteohub,2013-03-03 07:23:00,
2013-03-03 02:29:00,32.9,28.0,30.26,NE,51,0.0,0.0,82,0.00,,,0.00,meteohub,2013-03-03 07:29:00,
2013-03-03 02:34:00,32.7,27.5,30.26,NE,51,0.0,0.0,81,0.00,,,0.00,meteohub,2013-03-03 07:34:00,
2013-03-03 02:39:00,32.5,27.7,30.26,NE,51,0.0,0.0,82,0.00,,,0.00,meteohub,2013-03-03 07:39:00,
2013-03-03 02:44:00,32.5,28.0,30.26,NE,51,0.0,0.0,83,0.00,,,0.00,meteohub,2013-03-03 07:44:00,
2013-03-03 02:49:00,32.5,28.0,30.26,NE,51,0.0,0.0,83,0.00,,,0.00,meteohub,2013-03-03 07:49:00,
2013-03-03 02:54:00,32.5,28.0,30.26,NE,51,0.0,0.0,83,0.00,,,0.00,meteohub,2013-03-03 07:54:00,
2013-03-03 02:59:00,32.5,28.0,30.26,NE,51,0.0,0.0,83,0.00,,,0.00,meteohub,2013-03-03 07:59:00,
2013-03-03 03:04:00,32.4,27.5,30.26,NE,51,0.0,0.0,82,0.00,,,0.00,meteohub,2013-03-03 08:04:00,
2013-03-03 03:09:00,32.4,27.9,30.26,NE,51,0.0,0.0,83,0.00,,,0.00,meteohub,2013-03-03 08:09:00,
2013-03-03 03:14:00,32.2,27.7,30.26,NE,51,0.0,0.0,83,0.00,,,0.00,meteohub,2013-03-03 08:14:00,
2013-03-03 03:19:00,32.2,27.3,30.26,NE,51,0.0,0.0,82,0.00,,,0.00,meteohub,2013-03-03 08:19:00,
2013-03-03 03:24:00,31.8,27.3,30.26,NE,51,0.0,0.0,83,0.00,,,0.00,meteohub,2013-03-03 08:24:00,
2013-03-03 03:29:00,31.8,27.3,30.25,NE,51,0.0,0.0,83,0.00,,,0.00,meteohub,2013-03-03 08:29:00,
2013-03-03 03:34:00,31.8,27.3,30.25,NE,51,0.0,0.0,83,0.00,,,0.00,meteohub,2013-03-03 08:34:00,
2013-03-03 03:39:00,31.8,27.3,30.25,NE,51,0.0,0.0,83,0.00,,,0.00,meteohub,2013-03-03 08:39:00,
2013-03-03 03:44:00,31.8,27.3,30.25,NE,51,0.0,0.0,83,0.00,,,0.00,meteohub,2013-03-03 08:44:00,
2013-03-03 03:49:00,31.6,27.1,30.25,NE,51,0.0,0.0,83,0.00,,,0.00,meteohub,2013-03-03 08:49:00,
2013-03-03 03:55:00,31.6,27.1,30.25,NE,51,0.0,0.0,83,0.00,,,0.00,meteohub,2013-03-03 08:55:00,
2013-03-03 04:00:00,31.5,27.0,30.25,NE,51,0.0,0.0,83,0.00,,,0.00,meteohub,2013-03-03 09:00:00,
2013-03-03 04:05:00,31.5,27.0,30.25,NE,51,0.0,0.0,83,0.00,,,0.00,meteohub,2013-03-03 09:05:00,
2013-03-03 04:10:00,31.3,26.8,30.25,NE,51,0.0,0.0,83,0.00,,,0.00,meteohub,2013-03-03 09:10:00,
2013-03-03 04:15:00,31.1,26.6,30.25,NE,51,0.0,0.0,83,0.00,,,0.00,meteohub,2013-03-03 09:15:00,
2013-03-03 04:20:00,30.9,26.4,30.25,NE,51,0.0,0.0,83,0.00,,,0.00,meteohub,2013-03-03 09:20:00,
2013-03-03 04:25:00,30.7,26.4,30.25,NE,51,0.0,0.0,84,0.00,,,0.00,meteohub,2013-03-03 09:25:00,
2013-03-03 04:30:00,30.7,26.4,30.26,NE,51,0.0,0.0,84,0.00,,,0.00,meteohub,2013-03-03 09:30:00,
2013-03-03 04:35:00,30.7,26.4,30.25,NE,51,0.0,0.0,84,0.00,,,0.00,meteohub,2013-03-03 09:35:00,
2013-03-03 04:40:00,30.7,26.4,30.25,NE,51,0.0,0.0,84,0.00,,,0.00,meteohub,2013-03-03 09:40:00,
2013-03-03 04:45:00,30.7,26.4,30.25,NE,51,0.0,0.0,84,0.00,,,0.00,meteohub,2013-03-03 09:45:00,
2013-03-03 04:50:00,30.7,26.4,30.25,NE,51,0.0,0.0,84,0.00,,,0.00,meteohub,2013-03-03 09:50:00,
2013-03-03 04:55:00,30.6,26.2,30.25,NE,51,0.0,0.0,84,0.00,,,0.00,meteohub,2013-03-03 09:55:00,
2013-03-03 05:00:00,30.6,26.2,30.25,NE,51,0.0,0.0,84,0.00,,,0.00,meteohub,2013-03-03 10:00:00,
2013-03-03 05:06:00,30.6,26.6,30.25,NE,51,0.0,0.0,85,0.00,,,0.00,meteohub,2013-03-03 10:06:00,
2013-03-03 05:11:00,30.6,26.6,30.25,NE,51,0.0,0.0,85,0.00,,,0.00,meteohub,2013-03-03 10:11:00,
2013-03-03 05:16:00,30.6,26.2,30.25,NE,51,0.0,0.0,84,0.00,,,0.00,meteohub,2013-03-03 10:16:00,
2013-03-03 05:21:00,30.6,26.6,30.25,NE,51,0.0,0.0,85,0.00,,,0.00,meteohub,2013-03-03 10:21:00,
2013-03-03 05:26:00,30.7,26.8,30.25,NE,51,0.0,0.0,85,0.00,,,0.00,meteohub,2013-03-03 10:26:00,
2013-03-03 05:31:00,30.7,26.8,30.25,NE,51,0.0,0.0,85,0.00,,,0.00,meteohub,2013-03-03 10:31:00,
2013-03-03 05:36:00,30.7,26.8,30.25,NE,51,0.0,0.0,85,0.00,,,0.00,meteohub,2013-03-03 10:36:00,
2013-03-03 05:41:00,30.7,26.8,30.25,NE,51,0.0,0.0,85,0.00,,,0.00,meteohub,2013-03-03 10:41:00,
2013-03-03 05:47:00,30.6,26.6,30.25,NE,51,0.0,0.0,85,0.00,,,0.00,meteohub,2013-03-03 10:47:00,
2013-03-03 05:52:00,30.6,26.6,30.25,NE,51,0.0,0.0,85,0.00,,,0.00,meteohub,2013-03-03 10:52:00,
2013-03-03 05:57:00,30.4,26.4,30.26,NE,51,0.0,0.0,85,0.00,,,0.00,meteohub,2013-03-03 10:57:00,
2013-03-03 06:02:00,30.2,26.2,30.26,NE,51,0.0,0.0,85,0.00,,,0.00,meteohub,2013-03-03 11:02:00,
2013-03-03 06:07:00,30.0,26.4,30.26,NE,51,0.0,0.0,86,0.00,,,0.00,meteohub,2013-03-03 11:07:00,
2013-03-03 06:12:00,30.2,28.2,30.26,NE,51,0.0,0.0,92,0.00,,,0.00,meteohub,2013-03-03 11:12:00,
2013-03-03 06:17:00,30.2,28.2,30.26,NE,51,0.0,0.0,92,0.00,,,0.00,meteohub,2013-03-03 11:17:00,
2013-03-03 06:22:00,30.0,26.4,30.27,NE,51,0.0,0.0,86,0.00,,,0.00,meteohub,2013-03-03 11:22:00,
2013-03-03 06:27:00,29.8,25.9,30.27,NE,51,0.0,0.0,85,0.00,,,0.00,meteohub,2013-03-03 11:27:00,
2013-03-03 06:32:00,29.7,26.1,30.27,NE,51,0.0,0.0,86,0.00,,,0.00,meteohub,2013-03-03 11:32:00,
2013-03-03 06:37:00,29.5,25.9,30.27,NE,51,0.0,0.0,86,0.00,,,0.00,meteohub,2013-03-03 11:37:00,
2013-03-03 06:42:00,29.7,26.2,30.27,NE,51,0.0,0.0,87,0.00,,,0.00,meteohub,2013-03-03 11:42:00,
2013-03-03 06:47:00,29.7,26.2,30.27,NE,51,0.0,0.0,87,0.00,,,0.00,meteohub,2013-03-03 11:47:00,
2013-03-03 06:52:00,29.7,26.2,30.28,NE,51,0.0,0.0,87,0.00,,,0.00,meteohub,2013-03-03 11:52:00,
2013-03-03 06:57:00,29.7,26.2,30.28,NE,51,0.0,0.0,87,0.00,,,0.00,meteohub,2013-03-03 11:57:00,
2013-03-03 07:02:00,29.7,26.1,30.28,NE,51,0.0,0.0,86,0.00,,,0.00,meteohub,2013-03-03 12:02:00,
2013-03-03 07:07:00,29.7,26.1,30.28,NE,51,0.0,0.0,86,0.00,,,0.00,meteohub,2013-03-03 12:07:00,
2013-03-03 07:12:00,29.5,25.9,30.29,NE,51,0.0,0.0,86,0.00,,,0.00,meteohub,2013-03-03 12:12:00,
2013-03-03 07:17:00,29.1,25.5,30.28,NE,51,0.0,0.0,86,0.00,,,0.00,meteohub,2013-03-03 12:17:00,
2013-03-03 07:22:00,29.1,25.7,30.29,NE,51,0.0,0.0,87,0.00,,,0.00,meteohub,2013-03-03 12:22:00,
2013-03-03 07:27:00,29.1,25.7,30.29,NE,51,0.0,0.0,87,0.00,,,0.00,meteohub,2013-03-03 12:27:00,
2013-03-03 07:32:00,29.1,26.1,30.29,NE,51,0.0,0.0,88,0.00,,,0.00,meteohub,2013-03-03 12:32:00,
2013-03-03 07:37:00,29.5,26.4,30.29,NE,51,0.0,0.0,88,0.00,,,0.00,meteohub,2013-03-03 12:37:00,
2013-03-03 07:42:00,29.5,26.1,30.29,NE,51,0.0,0.0,87,0.00,,,0.00,meteohub,2013-03-03 12:42:00,
2013-03-03 07:47:00,29.7,26.2,30.29,NE,51,0.0,0.0,87,0.00,,,0.00,meteohub,2013-03-03 12:47:00,
2013-03-03 07:52:00,29.8,26.4,30.29,NE,51,0.0,0.0,87,0.00,,,0.00,meteohub,2013-03-03 12:52:00,
2013-03-03 07:57:00,29.8,26.4,30.28,NE,51,0.0,0.0,87,0.00,,,0.00,meteohub,2013-03-03 12:57:00,
2013-03-03 08:02:00,30.4,27.0,30.29,NE,51,0.0,1.0,87,0.00,,,0.00,meteohub,2013-03-03 13:02:00,
2013-03-03 08:07:00,30.6,27.1,30.29,NE,51,0.0,1.0,87,0.00,,,0.00,meteohub,2013-03-03 13:07:00,
2013-03-03 08:12:00,31.3,27.9,30.29,NE,51,0.0,0.0,87,0.00,,,0.00,meteohub,2013-03-03 13:12:00,
2013-03-03 08:17:00,31.8,28.4,30.29,NE,51,0.0,0.0,87,0.00,,,0.00,meteohub,2013-03-03 13:17:00,
2013-03-03 08:22:00,32.5,28.8,30.30,NE,51,0.0,0.0,86,0.00,,,0.00,meteohub,2013-03-03 13:22:00,
2013-03-03 08:27:00,33.1,29.3,30.30,NE,51,0.0,0.0,86,0.00,,,0.00,meteohub,2013-03-03 13:27:00,
2013-03-03 08:32:00,33.8,29.8,30.30,NE,51,0.0,0.0,85,0.00,,,0.00,meteohub,2013-03-03 13:32:00,
2013-03-03 08:37:00,34.7,30.4,30.30,NE,51,0.0,0.0,84,0.01,,,0.01,meteohub,2013-03-03 13:37:00,
2013-03-03 08:42:00,35.4,30.2,30.30,NE,51,0.0,0.0,81,0.01,,,0.01,meteohub,2013-03-03 13:42:00,
2013-03-03 08:47:00,36.1,30.9,30.30,NE,51,0.0,0.0,81,0.01,,,0.01,meteohub,2013-03-03 13:47:00,
2013-03-03 08:52:00,37.0,31.1,30.30,NE,51,0.0,0.0,79,0.01,,,0.01,meteohub,2013-03-03 13:52:00,
2013-03-03 08:57:00,37.9,31.5,30.30,NE,51,0.0,0.0,77,0.01,,,0.01,meteohub,2013-03-03 13:57:00,
2013-03-03 09:02:00,38.5,31.3,30.31,NE,51,0.0,0.0,75,0.03,,,0.03,meteohub,2013-03-03 14:02:00,
2013-03-03 09:07:00,38.7,31.1,30.31,NE,51,0.0,3.0,74,0.14,,,0.14,meteohub,2013-03-03 14:07:00,
2013-03-03 09:12:00,39.2,30.9,30.31,NE,51,0.0,3.0,72,0.23,,,0.23,meteohub,2013-03-03 14:12:00,
2013-03-03 09:17:00,38.8,27.0,30.31,ESE,112,0.0,3.0,62,0.27,,,0.27,meteohub,2013-03-03 14:17:00,
2013-03-03 09:22:00,38.7,28.2,30.31,ESE,111,0.0,5.0,66,0.34,,,0.34,meteohub,2013-03-03 14:22:00,
2013-03-03 09:27:00,38.5,27.7,30.31,SSE,155,2.0,5.0,65,0.41,,,0.40,meteohub,2013-03-03 14:27:00,
2013-03-03 09:32:00,38.5,27.3,30.31,SSE,155,0.0,6.0,64,0.43,,,0.43,meteohub,2013-03-03 14:32:00,
2013-03-03 09:37:00,38.5,27.3,30.31,SSE,167,0.0,6.0,64,0.48,,,0.49,meteohub,2013-03-03 14:37:00,
2013-03-03 09:42:00,38.8,28.0,30.31,NNE,23,0.0,6.0,65,0.51,,,0.52,meteohub,2013-03-03 14:42:00,
2013-03-03 09:47:00,39.4,27.9,30.30,SE,135,0.0,5.0,63,0.55,,,0.56,meteohub,2013-03-03 14:47:00,
2013-03-03 09:52:00,39.9,28.4,30.30,SE,135,0.0,5.0,63,0.60,,,0.61,meteohub,2013-03-03 14:52:00,
2013-03-03 09:57:00,40.3,27.9,30.30,SE,135,0.0,5.0,61,0.62,,,0.63,meteohub,2013-03-03 14:57:00,
2013-03-03 10:02:00,40.5,27.3,30.30,SE,143,2.0,4.0,59,0.59,,,0.67,meteohub,2013-03-03 15:02:00,
2013-03-03 10:07:00,40.1,27.3,30.30,SE,136,0.0,6.0,60,0.53,,,0.69,meteohub,2013-03-03 15:07:00,
2013-03-03 10:12:00,40.3,27.9,30.30,SE,137,4.0,8.0,61,0.49,,,0.73,meteohub,2013-03-03 15:12:00,
2013-03-03 10:17:00,40.3,27.5,30.30,SE,136,0.0,8.0,60,0.46,,,0.76,meteohub,2013-03-03 15:17:00,
2013-03-03 10:22:00,40.8,28.0,30.30,SE,138,0.0,8.0,60,0.42,,,0.78,meteohub,2013-03-03 15:22:00,
2013-03-03 10:27:00,41.4,28.0,30.30,SE,139,0.0,8.0,59,0.40,,,0.81,meteohub,2013-03-03 15:27:00,
2013-03-03 10:32:00,41.5,28.8,30.30,NNW,340,0.0,8.0,60,0.36,,,0.82,meteohub,2013-03-03 15:32:00,
2013-03-03 10:37:00,42.3,28.9,30.30,South,177,6.0,6.0,59,0.35,,,0.85,meteohub,2013-03-03 15:37:00,
2013-03-03 10:42:00,42.1,28.4,30.30,South,177,0.0,6.0,58,0.34,,,0.88,meteohub,2013-03-03 15:42:00,
2013-03-03 10:47:00,42.3,28.9,30.30,NNW,344,0.0,6.0,59,0.32,,,0.90,meteohub,2013-03-03 15:47:00,
2013-03-03 10:52:00,42.8,28.6,30.30,South,179,0.0,6.0,57,0.31,,,0.92,meteohub,2013-03-03 15:52:00,
2013-03-03 10:57:00,43.0,29.7,30.30,SSW,193,0.0,5.0,59,0.30,,,0.94,meteohub,2013-03-03 15:57:00,
2013-03-03 11:02:00,43.3,28.8,30.30,South,182,0.0,5.0,56,0.28,,,0.96,meteohub,2013-03-03 16:02:00,
2013-03-03 11:07:00,43.7,29.8,30.29,West,274,0.0,5.0,58,0.27,,,0.98,meteohub,2013-03-03 16:07:00,
2013-03-03 11:12:00,44.1,29.8,30.29,South,173,0.0,4.0,57,0.25,,,0.99,meteohub,2013-03-03 16:12:00,
2013-03-03 11:17:00,44.2,30.4,30.29,NE,51,2.0,4.0,58,0.26,,,1.02,meteohub,2013-03-03 16:17:00,
2013-03-03 11:22:00,44.8,30.0,30.29,NE,51,0.0,4.0,56,0.24,,,1.03,meteohub,2013-03-03 16:22:00,
2013-03-03 11:27:00,45.5,30.2,30.29,NNW,347,0.0,3.0,55,0.22,,,1.04,meteohub,2013-03-03 16:27:00,
2013-03-03 11:32:00,46.0,30.4,30.29,WSW,243,0.0,4.0,54,0.22,,,1.06,meteohub,2013-03-03 16:32:00,
2013-03-03 11:37:00,46.6,30.7,30.28,NNW,336,1.0,4.0,54,0.21,,,1.07,meteohub,2013-03-03 16:37:00,
2013-03-03 11:42:00,47.1,29.8,30.28,NNW,346,0.0,5.0,51,0.20,,,1.08,meteohub,2013-03-03 16:42:00,
2013-03-03 11:47:00,46.6,28.9,30.27,SSW,192,6.0,6.0,50,0.19,,,1.10,meteohub,2013-03-03 16:47:00,
2013-03-03 11:52:00,45.5,28.4,30.27,SSE,157,0.0,7.0,51,0.18,,,1.11,meteohub,2013-03-03 16:52:00,
2013-03-03 11:57:00,46.0,29.8,30.27,WSW,250,0.0,7.0,53,0.17,,,1.12,meteohub,2013-03-03 16:57:00,
2013-03-03 12:02:00,46.8,29.1,30.27,NNW,346,0.0,8.0,50,0.17,,,1.14,meteohub,2013-03-03 17:02:00,
2013-03-03 12:07:00,46.4,28.2,30.27,NE,42,0.0,8.0,49,0.16,,,1.14,meteohub,2013-03-03 17:07:00,
2013-03-03 12:12:00,46.6,29.8,30.27,NW,313,0.0,8.0,52,0.16,,,1.16,meteohub,2013-03-03 17:12:00,
2013-03-03 12:17:00,46.9,29.3,30.26,ENE,67,0.0,8.0,50,0.15,,,1.17,meteohub,2013-03-03 17:17:00,
2013-03-03 12:22:00,47.1,30.4,30.26,North,355,5.0,5.0,52,0.14,,,1.18,meteohub,2013-03-03 17:22:00,
2013-03-03 12:27:00,47.8,30.6,30.26,North,0,0.0,5.0,51,0.15,,,1.20,meteohub,2013-03-03 17:27:00,
2013-03-03 12:32:00,48.6,31.3,30.26,WSW,243,0.0,5.0,51,0.14,,,1.20,meteohub,2013-03-03 17:32:00,
2013-03-03 12:37:00,49.1,31.3,30.26,NNW,330,2.0,5.0,50,0.14,,,1.22,meteohub,2013-03-03 17:37:00,
2013-03-03 12:42:00,49.5,31.6,30.25,WNW,296,0.0,5.0,50,0.13,,,1.22,meteohub,2013-03-03 17:42:00,
2013-03-03 12:47:00,48.7,30.9,30.25,SW,224,0.0,8.0,50,0.13,,,1.23,meteohub,2013-03-03 17:47:00,
2013-03-03 12:52:00,49.3,31.5,30.25,WSW,251,6.0,8.0,50,0.13,,,1.25,meteohub,2013-03-03 17:52:00,
2013-03-03 12:57:00,49.3,32.0,30.25,WNW,286,0.0,8.0,51,0.12,,,1.25,meteohub,2013-03-03 17:57:00,
2013-03-03 13:02:00,49.8,32.0,30.25,NNW,332,0.0,7.0,50,0.12,,,1.26,meteohub,2013-03-03 18:02:00,
2013-03-03 13:07:00,50.2,31.3,30.25,NNW,344,0.0,8.0,48,0.12,,,1.27,meteohub,2013-03-03 18:07:00,
2013-03-03 13:12:00,49.8,30.9,30.24,SW,234,0.0,8.0,48,0.12,,,1.28,meteohub,2013-03-03 18:12:00,
2013-03-03 13:17:00,49.6,30.7,30.24,West,275,5.0,9.0,48,0.11,,,1.29,meteohub,2013-03-03 18:17:00,
2013-03-03 13:22:00,50.5,32.0,30.24,NW,313,0.0,9.0,49,0.10,,,1.29,meteohub,2013-03-03 18:22:00,
2013-03-03 13:27:00,51.3,31.6,30.24,West,277,2.0,9.0,47,0.10,,,1.30,meteohub,2013-03-03 18:27:00,
2013-03-03 13:32:00,51.4,29.7,30.24,NNW,337,2.0,8.0,43,0.09,,,1.30,meteohub,2013-03-03 18:32:00,
2013-03-03 13:37:00,52.2,29.1,30.23,North,355,10.0,10.0,41,0.09,,,1.31,meteohub,2013-03-03 18:37:00,
2013-03-03 13:42:00,52.2,30.4,30.23,North,0,5.0,10.0,43,0.09,,,1.32,meteohub,2013-03-03 18:42:00,
2013-03-03 13:47:00,52.3,31.6,30.22,NE,44,2.0,10.0,45,0.08,,,1.32,meteohub,2013-03-03 18:47:00,
2013-03-03 13:52:00,52.9,31.6,30.22,West,260,0.0,10.0,44,0.08,,,1.33,meteohub,2013-03-03 18:52:00,
2013-03-03 13:57:00,53.2,32.4,30.22,WSW,238,2.0,8.0,45,0.07,,,1.33,meteohub,2013-03-03 18:57:00,
2013-03-03 14:02:00,52.9,31.6,30.22,NNW,333,0.0,9.0,44,0.08,,,1.34,meteohub,2013-03-03 19:02:00,
2013-03-03 14:07:00,52.9,32.2,30.22,WSW,244,4.0,9.0,45,0.07,,,1.34,meteohub,2013-03-03 19:07:00,
2013-03-03 14:12:00,53.1,32.4,30.22,WSW,241,4.0,9.0,45,0.07,,,1.35,meteohub,2013-03-03 19:12:00,
2013-03-03 14:17:00,53.1,32.4,30.21,SW,226,0.0,8.0,45,0.06,,,1.35,meteohub,2013-03-03 19:17:00,
2013-03-03 14:22:00,53.2,32.4,30.21,NW,317,5.0,7.0,45,0.06,,,1.36,meteohub,2013-03-03 19:22:00,
2013-03-03 14:27:00,54.0,32.0,30.21,West,264,0.0,7.0,43,0.06,,,1.36,meteohub,2013-03-03 19:27:00,
2013-03-03 14:32:00,54.5,33.6,30.21,NNW,333,4.0,8.0,45,0.05,,,1.36,meteohub,2013-03-03 19:32:00,
2013-03-03 14:37:00,55.0,32.9,30.21,NNE,16,4.0,8.0,43,0.06,,,1.37,meteohub,2013-03-03 19:37:00,
2013-03-03 14:42:00,54.9,34.5,30.20,North,349,4.0,9.0,46,0.05,,,1.37,meteohub,2013-03-03 19:42:00,
2013-03-03 14:47:00,54.9,32.2,30.20,East,101,0.0,9.0,42,0.05,,,1.38,meteohub,2013-03-03 19:47:00,
2013-03-03 14:52:00,54.7,33.8,30.19,NNW,330,2.0,7.0,45,0.05,,,1.38,meteohub,2013-03-03 19:52:00,
2013-03-03 14:57:00,54.7,32.5,30.19,WSW,257,0.0,8.0,43,0.04,,,1.38,meteohub,2013-03-03 19:57:00,
2013-03-03 15:02:00,55.4,32.0,30.19,NNW,327,0.0,8.0,41,0.04,,,1.38,meteohub,2013-03-03 20:02:00,
2013-03-03 15:07:00,55.9,32.0,30.19,WSW,254,3.0,9.0,40,0.05,,,1.39,meteohub,2013-03-03 20:07:00,
2013-03-03 15:12:00,55.9,31.3,30.19,NW,325,4.0,9.0,39,0.04,,,1.39,meteohub,2013-03-03 20:12:00,
2013-03-03 15:17:00,55.9,32.5,30.19,NNW,330,2.0,9.0,41,0.04,,,1.39,meteohub,2013-03-03 20:17:00,
2013-03-03 15:22:00,56.7,33.8,30.19,North,355,0.0,8.0,42,0.04,,,1.40,meteohub,2013-03-03 20:22:00,
2013-03-03 15:27:00,57.2,33.1,30.19,WNW,295,1.0,8.0,40,0.04,,,1.40,meteohub,2013-03-03 20:27:00,
2013-03-03 15:32:00,57.0,31.6,30.19,WNW,284,0.0,10.0,38,0.03,,,1.40,meteohub,2013-03-03 20:32:00,
2013-03-03 15:37:00,57.0,31.6,30.19,NNE,17,0.0,10.0,38,0.03,,,1.40,meteohub,2013-03-03 20:37:00,
2013-03-03 15:42:00,56.5,31.1,30.18,NNW,348,6.0,10.0,38,0.04,,,1.41,meteohub,2013-03-03 20:42:00,
2013-03-03 15:47:00,56.7,30.7,30.18,WNW,290,4.0,7.0,37,0.03,,,1.41,meteohub,2013-03-03 20:47:00,
2013-03-03 15:52:00,57.0,28.9,30.18,NW,308,2.0,7.0,34,0.03,,,1.41,meteohub,2013-03-03 20:52:00,
2013-03-03 15:57:00,57.2,29.8,30.18,WSW,257,2.0,12.0,35,0.03,,,1.41,meteohub,2013-03-03 20:57:00,
2013-03-03 16:02:00,57.0,29.7,30.17,SSW,193,0.0,12.0,35,0.03,,,1.42,meteohub,2013-03-03 21:02:00,
2013-03-03 16:07:00,57.6,30.0,30.17,NNW,342,0.0,12.0,35,0.03,,,1.42,meteohub,2013-03-03 21:07:00,
2013-03-03 16:12:00,57.6,29.5,30.17,ENE,58,0.0,7.0,34,0.03,,,1.42,meteohub,2013-03-03 21:12:00,
2013-03-03 16:17:00,57.2,29.8,30.17,West,281,0.0,7.0,35,0.02,,,1.42,meteohub,2013-03-03 21:17:00,
2013-03-03 16:22:00,57.2,30.6,30.17,ESE,111,2.0,7.0,36,0.02,,,1.42,meteohub,2013-03-03 21:22:00,
2013-03-03 16:27:00,57.4,30.6,30.17,NW,306,0.0,6.0,36,0.02,,,1.42,meteohub,2013-03-03 21:27:00,
2013-03-03 16:32:00,57.7,31.6,30.17,NE,40,3.0,6.0,37,0.03,,,1.43,meteohub,2013-03-03 21:32:00,
2013-03-03 16:37:00,57.9,31.1,30.17,North,0,0.0,6.0,36,0.02,,,1.43,meteohub,2013-03-03 21:37:00,
2013-03-03 16:42:00,57.9,31.1,30.17,North,0,0.0,6.0,36,0.02,,,1.43,meteohub,2013-03-03 21:42:00,
2013-03-03 16:47:00,57.7,32.4,30.17,SW,228,0.0,6.0,38,0.02,,,1.43,meteohub,2013-03-03 21:47:00,
2013-03-03 16:52:00,57.6,31.5,30.17,North,349,7.0,7.0,37,0.02,,,1.43,meteohub,2013-03-03 21:52:00,
2013-03-03 16:57:00,57.7,31.6,30.17,WSW,243,1.0,7.0,37,0.02,,,1.43,meteohub,2013-03-03 21:57:00,
2013-03-03 17:02:00,58.3,31.5,30.16,WSW,250,0.0,8.0,36,0.02,,,1.44,meteohub,2013-03-03 22:02:00,
2013-03-03 17:07:00,58.5,31.6,30.16,West,278,0.0,8.0,36,0.02,,,1.44,meteohub,2013-03-03 22:07:00,
2013-03-03 17:12:00,58.6,31.8,30.16,NNW,329,4.0,5.0,36,0.02,,,1.44,meteohub,2013-03-03 22:12:00,
2013-03-03 17:17:00,58.6,31.8,30.16,NW,321,0.0,8.0,36,0.02,,,1.44,meteohub,2013-03-03 22:17:00,
2013-03-03 17:22:00,58.6,32.4,30.16,WNW,289,0.0,8.0,37,0.02,,,1.44,meteohub,2013-03-03 22:22:00,
2013-03-03 17:28:00,58.6,32.4,30.16,WSW,241,3.0,8.0,37,0.02,,,1.44,meteohub,2013-03-03 22:28:00,
2013-03-03 17:33:00,58.6,32.4,30.16,WSW,245,3.0,5.0,37,0.01,,,1.44,meteohub,2013-03-03 22:33:00,
2013-03-03 17:38:00,58.6,32.4,30.15,WSW,256,1.0,5.0,37,0.01,,,1.44,meteohub,2013-03-03 22:38:00,
2013-03-03 17:43:00,58.5,32.9,30.15,WNW,294,2.0,7.0,38,0.01,,,1.44,meteohub,2013-03-03 22:43:00,
2013-03-03 17:48:00,58.3,32.7,30.15,WSW,244,0.0,7.0,38,0.02,,,1.45,meteohub,2013-03-03 22:48:00,
2013-03-03 17:53:00,57.4,32.0,30.15,SW,228,6.0,7.0,38,0.02,,,1.45,meteohub,2013-03-03 22:53:00,
2013-03-03 17:58:00,56.5,31.8,30.15,WSW,238,0.0,6.0,39,0.01,,,1.45,meteohub,2013-03-03 22:58:00,
2013-03-03 18:03:00,55.9,32.5,30.15,SW,227,0.0,8.0,41,0.01,,,1.45,meteohub,2013-03-03 23:03:00,
2013-03-03 18:08:00,55.8,32.4,30.15,SSW,198,0.0,8.0,41,0.01,,,0.00,meteohub,2013-03-03 23:08:00,
2013-03-03 18:13:00,55.8,32.4,30.15,NW,311,0.0,8.0,41,0.01,,,0.00,meteohub,2013-03-03 23:13:00,
2013-03-03 18:18:00,55.8,32.4,30.15,West,276,0.0,9.0,41,0.01,,,0.00,meteohub,2013-03-03 23:18:00,
2013-03-03 18:23:00,55.8,32.4,30.15,WSW,240,0.0,9.0,41,0.01,,,0.00,meteohub,2013-03-03 23:23:00,
2013-03-03 18:28:00,55.6,31.6,30.14,SW,236,0.0,9.0,40,0.01,,,0.00,meteohub,2013-03-03 23:28:00,
2013-03-03 18:33:00,55.6,32.2,30.15,SW,236,0.0,5.0,41,0.01,,,0.00,meteohub,2013-03-03 23:33:00,
2013-03-03 18:38:00,55.6,32.2,30.15,SW,236,0.0,3.0,41,0.01,,,0.00,meteohub,2013-03-03 23:38:00,
2013-03-03 18:43:00,55.6,32.2,30.15,SW,231,0.0,3.0,41,0.00,,,0.00,meteohub,2013-03-03 23:43:00,
2013-03-03 18:48:00,55.4,31.5,30.15,SW,235,0.0,5.0,40,0.00,,,0.00,meteohub,2013-03-03 23:48:00,
2013-03-03 18:54:00,55.2,32.0,30.16,SW,235,0.0,5.0,41,0.00,,,0.00,meteohub,2013-03-03 23:54:00,
2013-03-03 18:59:00,55.0,31.8,30.15,SW,235,0.0,5.0,41,0.00,,,0.00,meteohub,2013-03-03 23:59:00,
2013-03-03 19:04:00,54.9,32.2,30.15,SW,235,0.0,2.0,42,0.00,,,0.00,meteohub,2013-03-04 00:04:00,
2013-03-03 19:09:00,54.7,32.0,30.15,SW,235,0.0,0.0,42,0.00,,,0.00,meteohub,2013-03-04 00:09:00,
2013-03-03 19:14:00,54.3,32.4,30.15,SW,235,0.0,0.0,43,0.00,,,0.00,meteohub,2013-03-04 00:14:00,
2013-03-03 19:19:00,54.1,32.2,30.16,SW,235,0.0,1.0,43,0.00,,,0.00,meteohub,2013-03-04 00:19:00,
2013-03-03 19:24:00,54.0,32.5,30.16,SW,235,0.0,1.0,44,0.00,,,0.00,meteohub,2013-03-04 00:24:00,
2013-03-03 19:29:00,53.6,32.7,30.16,SW,235,0.0,0.0,45,0.00,,,0.00,meteohub,2013-03-04 00:29:00,
2013-03-03 19:34:00,53.2,32.4,30.15,SW,235,0.0,0.0,45,0.00,,,0.00,meteohub,2013-03-04 00:34:00,
2013-03-03 19:39:00,53.1,32.9,30.15,SW,235,0.0,0.0,46,0.00,,,0.00,meteohub,2013-03-04 00:39:00,
2013-03-03 19:44:00,52.7,33.1,30.16,SW,235,0.0,0.0,47,0.00,,,0.00,meteohub,2013-03-04 00:44:00,
2013-03-03 19:49:00,52.3,33.3,30.16,SW,235,0.0,0.0,48,0.00,,,0.00,meteohub,2013-03-04 00:49:00,
2013-03-03 19:54:00,52.0,32.9,30.16,SW,235,0.0,0.0,48,0.00,,,0.00,meteohub,2013-03-04 00:54:00,
2013-03-03 19:59:00,51.8,33.3,30.16,SW,235,0.0,0.0,49,0.00,,,0.00,meteohub,2013-03-04 00:59:00,
2013-03-03 20:04:00,51.4,33.4,30.15,SW,235,0.0,0.0,50,0.00,,,0.00,meteohub,2013-03-04 01:04:00,
2013-03-03 20:09:00,51.3,34.2,30.15,SW,235,0.0,0.0,52,0.00,,,0.00,meteohub,2013-03-04 01:09:00,
2013-03-03 20:14:00,50.9,34.0,30.15,SW,235,0.0,0.0,52,0.00,,,0.00,meteohub,2013-03-04 01:14:00,
2013-03-03 20:19:00,50.5,33.6,30.15,SW,235,0.0,0.0,52,0.00,,,0.00,meteohub,2013-03-04 01:19:00,
2013-03-03 20:25:00,50.4,33.8,30.15,SW,235,0.0,0.0,53,0.00,,,0.00,meteohub,2013-03-04 01:25:00,
2013-03-03 20:30:00,50.4,33.8,30.15,SW,235,0.0,0.0,53,0.00,,,0.00,meteohub,2013-03-04 01:30:00,
2013-03-03 20:35:00,50.2,34.2,30.16,SW,235,0.0,2.0,54,0.00,,,0.00,meteohub,2013-03-04 01:35:00,
2013-03-03 20:40:00,50.2,34.7,30.16,SW,235,0.0,2.0,55,0.00,,,0.00,meteohub,2013-03-04 01:40:00,
2013-03-03 20:45:00,50.2,34.7,30.16,SW,235,0.0,2.0,55,0.00,,,0.00,meteohub,2013-03-04 01:45:00,
2013-03-03 20:50:00,50.0,35.4,30.16,SW,235,0.0,3.0,57,0.00,,,0.00,meteohub,2013-03-04 01:50:00,
2013-03-03 20:55:00,50.0,35.4,30.16,SW,235,0.0,4.0,57,0.00,,,0.00,meteohub,2013-03-04 01:55:00,
2013-03-03 21:00:00,49.8,35.6,30.16,SW,235,0.0,4.0,58,0.00,,,0.00,meteohub,2013-03-04 02:00:00,
2013-03-03 21:05:00,49.8,35.6,30.16,SW,235,0.0,4.0,58,0.00,,,0.00,meteohub,2013-03-04 02:05:00,
2013-03-03 21:10:00,49.8,36.1,30.16,SW,234,0.0,3.0,59,0.00,,,0.00,meteohub,2013-03-04 02:10:00,
2013-03-03 21:15:00,49.6,36.0,30.16,SW,234,0.0,3.0,59,0.00,,,0.00,meteohub,2013-03-04 02:15:00,
2013-03-03 21:20:00,49.6,36.3,30.16,SW,234,0.0,3.0,60,0.00,,,0.00,meteohub,2013-03-04 02:20:00,
2013-03-03 21:25:00,49.5,36.5,30.16,SW,234,0.0,1.0,61,0.00,,,0.00,meteohub,2013-03-04 02:25:00,
2013-03-03 21:30:00,49.5,36.5,30.15,WSW,240,0.0,3.0,61,0.00,,,0.00,meteohub,2013-03-04 02:30:00,
2013-03-03 21:35:00,49.5,36.5,30.15,WSW,240,1.0,4.0,61,0.00,,,0.00,meteohub,2013-03-04 02:35:00,
2013-03-03 21:40:00,49.3,36.3,30.16,WSW,240,0.0,4.0,61,0.00,,,0.00,meteohub,2013-03-04 02:40:00,
2013-03-03 21:46:00,49.3,36.9,30.15,WSW,240,3.0,3.0,62,0.00,,,0.00,meteohub,2013-03-04 02:46:00,
2013-03-03 21:51:00,48.9,36.5,30.15,SW,221,0.0,4.0,62,0.00,,,0.00,meteohub,2013-03-04 02:51:00,
2013-03-03 21:56:00,48.7,36.7,30.16,SW,221,0.0,4.0,63,0.00,,,0.00,meteohub,2013-03-04 02:56:00,
2013-03-03 22:01:00,48.7,37.0,30.16,SW,221,0.0,4.0,64,0.00,,,0.00,meteohub,2013-03-04 03:01:00,
2013-03-03 22:06:00,48.6,36.9,30.16,SW,221,0.0,2.0,64,0.01,,,0.01,meteohub,2013-03-04 03:06:00,
2013-03-03 22:11:00,48.2,38.1,30.16,SW,221,0.0,2.0,68,0.01,,,0.01,meteohub,2013-03-04 03:11:00,
2013-03-03 22:16:00,47.8,37.0,30.16,SW,221,0.0,2.0,66,0.01,,,0.01,meteohub,2013-03-04 03:16:00,
2013-03-03 22:21:00,47.7,36.9,30.16,SW,221,0.0,3.0,66,0.01,,,0.01,meteohub,2013-03-04 03:21:00,
2013-03-03 22:26:00,47.5,37.0,30.16,SW,221,0.0,3.0,67,0.01,,,0.01,meteohub,2013-03-04 03:26:00,
2013-03-03 22:31:00,47.1,36.7,30.16,SW,221,0.0,3.0,67,0.01,,,0.01,meteohub,2013-03-04 03:31:00,
2013-03-03 22:36:00,47.1,36.7,30.16,SW,223,0.0,3.0,67,0.01,,,0.01,meteohub,2013-03-04 03:36:00,
2013-03-03 22:41:00,46.9,36.9,30.16,SW,223,3.0,3.0,68,0.01,,,0.01,meteohub,2013-03-04 03:41:00,
2013-03-03 22:46:00,46.8,36.7,30.16,SW,223,0.0,3.0,68,0.01,,,0.01,meteohub,2013-03-04 03:46:00,
2013-03-03 22:51:00,46.6,36.5,30.16,SW,223,0.0,3.0,68,0.01,,,0.01,meteohub,2013-03-04 03:51:00,
2013-03-03 22:57:00,46.6,37.0,30.16,SW,223,0.0,3.0,69,0.01,,,0.01,meteohub,2013-03-04 03:57:00,
2013-03-03 23:02:00,46.2,36.7,30.16,SW,223,0.0,2.0,69,0.00,,,0.01,meteohub,2013-03-04 04:02:00,
2013-03-03 23:07:00,46.0,36.5,30.16,SW,223,0.0,0.0,69,0.00,,,0.01,meteohub,2013-03-04 04:07:00,
2013-03-03 23:12:00,46.0,36.5,30.16,SW,223,0.0,3.0,69,0.00,,,0.01,meteohub,2013-03-04 04:12:00,
2013-03-03 23:17:00,45.9,36.7,30.15,SW,223,0.0,3.0,70,0.00,,,0.01,meteohub,2013-03-04 04:17:00,
2013-03-03 23:22:00,45.9,36.7,30.15,SW,222,0.0,3.0,70,0.00,,,0.01,meteohub,2013-03-04 04:22:00,
2013-03-03 23:27:00,45.9,36.7,30.15,WNW,288,1.0,3.0,70,0.00,,,0.01,meteohub,2013-03-04 04:27:00,
2013-03-03 23:32:00,45.9,36.7,30.15,SW,236,0.0,3.0,70,0.00,,,0.01,meteohub,2013-03-04 04:32:00,
2013-03-03 23:37:00,45.9,36.7,30.14,SW,235,0.0,3.0,70,0.00,,,0.01,meteohub,2013-03-04 04:37:00,
2013-03-03 23:42:00,45.7,36.5,30.14,SW,235,1.0,3.0,70,0.00,,,0.01,meteohub,2013-03-04 04:42:00,
2013-03-03 23:47:00,45.7,36.9,30.14,SW,236,0.0,3.0,71,0.00,,,0.01,meteohub,2013-03-04 04:47:00,
2013-03-03 23:52:00,45.9,37.0,30.14,SSW,200,0.0,3.0,71,0.00,,,0.01,meteohub,2013-03-04 04:52:00,
2013-03-03 23:57:00,45.9,37.0,30.14,SSW,200,0.0,5.0,71,0.00,,,0.01,meteohub,2013-03-04 04:57:00,